sensor_id;sensor_type;location;lat;lon;timestamp;P1;durP1;ratioP1;P2;durP2;ratioP2
16954;SDS011;8594;52.052;8.354;2023-05-10T00:01:21;11.70;;;8.00;;
16954;SDS011;8594;52.052;8.354;2023-05-10T00:03:48;13.00;;;8.37;;
16954;SDS011;8594;52.052;8.354;2023-05-10T00:06:15;11.33;;;8.57;;
16954;SDS011;8594;52.052;8.354;2023-05-10T00:08:42;12.67;;;8.07;;
16954;SDS011;8594;52.052;8.354;2023-05-10T00:11:10;9.03;;;7.30;;
16954;SDS011;8594;52.052;8.354;2023-05-10T00:13:37;10.40;;;7.47;;
16954;SDS011;8594;52.052;8.354;2023-05-10T00:16:04;10.83;;;8.10;;
16954;SDS011;8594;52.052;8.354;2023-05-10T00:18:32;11.70;;;8.37;;
16954;SDS011;8594;52.052;8.354;2023-05-10T00:20:59;12.40;;;8.23;;
16954;SDS011;8594;52.052;8.354;2023-05-10T00:23:26;9.70;;;7.27;;
16954;SDS011;8594;52.052;8.354;2023-05-10T00:25:53;11.00;;;7.63;;
16954;SDS011;8594;52.052;8.354;2023-05-10T00:28:20;12.20;;;8.20;;
16954;SDS011;8594;52.052;8.354;2023-05-10T00:30:46;10.57;;;7.70;;
16954;SDS011;8594;52.052;8.354;2023-05-10T00:33:14;10.93;;;8.37;;
16954;SDS011;8594;52.052;8.354;2023-05-10T00:35:42;13.17;;;8.40;;
16954;SDS011;8594;52.052;8.354;2023-05-10T00:38:09;13.40;;;9.07;;
16954;SDS011;8594;52.052;8.354;2023-05-10T00:40:36;14.53;;;9.10;;
16954;SDS011;8594;52.052;8.354;2023-05-10T00:43:03;12.93;;;9.77;;
16954;SDS011;8594;52.052;8.354;2023-05-10T00:45:30;14.67;;;9.77;;
16954;SDS011;8594;52.052;8.354;2023-05-10T00:47:57;13.73;;;9.67;;
16954;SDS011;8594;52.052;8.354;2023-05-10T00:50:25;13.03;;;9.00;;
16954;SDS011;8594;52.052;8.354;2023-05-10T00:52:53;12.97;;;9.57;;
16954;SDS011;8594;52.052;8.354;2023-05-10T00:55:21;14.73;;;9.60;;
16954;SDS011;8594;52.052;8.354;2023-05-10T00:57:47;14.77;;;10.17;;
16954;SDS011;8594;52.052;8.354;2023-05-10T01:00:15;14.20;;;10.33;;
16954;SDS011;8594;52.052;8.354;2023-05-10T01:02:43;13.27;;;9.30;;
16954;SDS011;8594;52.052;8.354;2023-05-10T01:05:11;12.80;;;9.70;;
16954;SDS011;8594;52.052;8.354;2023-05-10T01:07:38;13.67;;;9.07;;
16954;SDS011;8594;52.052;8.354;2023-05-10T01:10:07;13.77;;;8.90;;
16954;SDS011;8594;52.052;8.354;2023-05-10T01:12:36;14.40;;;9.47;;
16954;SDS011;8594;52.052;8.354;2023-05-10T01:15:08;13.67;;;9.60;;
16954;SDS011;8594;52.052;8.354;2023-05-10T01:17:38;14.83;;;10.10;;
16954;SDS011;8594;52.052;8.354;2023-05-10T01:20:09;14.53;;;9.70;;
16954;SDS011;8594;52.052;8.354;2023-05-10T01:22:45;14.67;;;10.37;;
16954;SDS011;8594;52.052;8.354;2023-05-10T01:26:02;16.13;;;9.77;;
16954;SDS011;8594;52.052;8.354;2023-05-10T01:28:53;13.20;;;9.40;;
16954;SDS011;8594;52.052;8.354;2023-05-10T01:34:42;12.87;;;8.90;;
16954;SDS011;8594;52.052;8.354;2023-05-10T01:37:20;15.97;;;9.67;;
16954;SDS011;8594;52.052;8.354;2023-05-10T01:39:55;14.17;;;9.33;;
16954;SDS011;8594;52.052;8.354;2023-05-10T01:42:34;14.03;;;9.53;;
16954;SDS011;8594;52.052;8.354;2023-05-10T01:45:11;13.80;;;8.87;;
16954;SDS011;8594;52.052;8.354;2023-05-10T01:47:48;12.93;;;8.87;;
16954;SDS011;8594;52.052;8.354;2023-05-10T01:50:24;12.43;;;8.20;;
16954;SDS011;8594;52.052;8.354;2023-05-10T01:52:56;13.43;;;8.97;;
16954;SDS011;8594;52.052;8.354;2023-05-10T01:55:27;11.70;;;8.47;;
16954;SDS011;8594;52.052;8.354;2023-05-10T01:57:59;11.50;;;8.37;;
16954;SDS011;8594;52.052;8.354;2023-05-10T02:00:31;13.90;;;9.80;;
16954;SDS011;8594;52.052;8.354;2023-05-10T02:03:03;14.47;;;9.83;;
16954;SDS011;8594;52.052;8.354;2023-05-10T02:05:35;14.30;;;9.47;;
16954;SDS011;8594;52.052;8.354;2023-05-10T02:08:05;12.70;;;9.07;;
16954;SDS011;8594;52.052;8.354;2023-05-10T02:10:34;12.13;;;8.83;;
16954;SDS011;8594;52.052;8.354;2023-05-10T02:13:02;14.13;;;9.73;;
16954;SDS011;8594;52.052;8.354;2023-05-10T02:15:31;13.50;;;9.27;;
16954;SDS011;8594;52.052;8.354;2023-05-10T02:18:00;12.10;;;9.07;;
16954;SDS011;8594;52.052;8.354;2023-05-10T02:20:31;11.53;;;7.70;;
16954;SDS011;8594;52.052;8.354;2023-05-10T02:23:00;9.63;;;7.33;;
16954;SDS011;8594;52.052;8.354;2023-05-10T02:25:29;11.03;;;7.00;;
16954;SDS011;8594;52.052;8.354;2023-05-10T02:27:59;8.57;;;6.63;;
16954;SDS011;8594;52.052;8.354;2023-05-10T02:30:30;9.50;;;6.50;;
16954;SDS011;8594;52.052;8.354;2023-05-10T02:32:59;9.80;;;6.63;;
16954;SDS011;8594;52.052;8.354;2023-05-10T02:35:31;6.60;;;4.90;;
16954;SDS011;8594;52.052;8.354;2023-05-10T02:37:59;13.40;;;5.73;;
16954;SDS011;8594;52.052;8.354;2023-05-10T02:40:27;6.73;;;5.10;;
16954;SDS011;8594;52.052;8.354;2023-05-10T02:42:56;7.73;;;5.40;;
16954;SDS011;8594;52.052;8.354;2023-05-10T02:45:26;8.37;;;4.97;;
16954;SDS011;8594;52.052;8.354;2023-05-10T02:47:56;5.93;;;4.53;;
16954;SDS011;8594;52.052;8.354;2023-05-10T02:50:24;7.47;;;4.93;;
16954;SDS011;8594;52.052;8.354;2023-05-10T02:52:56;6.33;;;4.87;;
16954;SDS011;8594;52.052;8.354;2023-05-10T02:55:31;7.57;;;4.60;;
16954;SDS011;8594;52.052;8.354;2023-05-10T02:58:03;7.20;;;5.27;;
16954;SDS011;8594;52.052;8.354;2023-05-10T03:00:30;7.77;;;5.67;;
16954;SDS011;8594;52.052;8.354;2023-05-10T03:02:57;10.77;;;4.97;;
16954;SDS011;8594;52.052;8.354;2023-05-10T03:05:26;7.20;;;4.70;;
16954;SDS011;8594;52.052;8.354;2023-05-10T03:07:53;9.13;;;5.50;;
16954;SDS011;8594;52.052;8.354;2023-05-10T03:10:22;7.40;;;5.23;;
16954;SDS011;8594;52.052;8.354;2023-05-10T03:13:02;8.07;;;4.83;;
16954;SDS011;8594;52.052;8.354;2023-05-10T03:15:47;6.60;;;5.40;;
16954;SDS011;8594;52.052;8.354;2023-05-10T03:18:27;6.83;;;5.13;;
16954;SDS011;8594;52.052;8.354;2023-05-10T03:21:07;6.80;;;5.33;;
16954;SDS011;8594;52.052;8.354;2023-05-10T03:23:40;8.47;;;5.00;;
16954;SDS011;8594;52.052;8.354;2023-05-10T03:26:10;6.03;;;4.73;;
16954;SDS011;8594;52.052;8.354;2023-05-10T03:28:46;5.80;;;4.43;;
16954;SDS011;8594;52.052;8.354;2023-05-10T03:31:14;6.93;;;4.93;;
16954;SDS011;8594;52.052;8.354;2023-05-10T03:33:46;5.37;;;4.30;;
16954;SDS011;8594;52.052;8.354;2023-05-10T03:36:14;7.30;;;4.07;;
16954;SDS011;8594;52.052;8.354;2023-05-10T03:38:42;5.70;;;3.77;;
16954;SDS011;8594;52.052;8.354;2023-05-10T03:41:09;11.97;;;3.80;;
16954;SDS011;8594;52.052;8.354;2023-05-10T03:43:36;4.77;;;3.60;;
16954;SDS011;8594;52.052;8.354;2023-05-10T03:46:03;5.37;;;3.50;;
16954;SDS011;8594;52.052;8.354;2023-05-10T03:48:31;5.53;;;3.47;;
16954;SDS011;8594;52.052;8.354;2023-05-10T03:50:58;3.83;;;2.87;;
16954;SDS011;8594;52.052;8.354;2023-05-10T03:53:25;3.57;;;2.80;;
16954;SDS011;8594;52.052;8.354;2023-05-10T03:55:54;3.20;;;2.73;;
16954;SDS011;8594;52.052;8.354;2023-05-10T03:58:20;3.20;;;2.07;;
16954;SDS011;8594;52.052;8.354;2023-05-10T04:00:47;3.93;;;1.93;;
16954;SDS011;8594;52.052;8.354;2023-05-10T04:03:14;7.67;;;2.10;;
16954;SDS011;8594;52.052;8.354;2023-05-10T04:05:41;3.57;;;1.90;;
16954;SDS011;8594;52.052;8.354;2023-05-10T04:08:08;3.10;;;1.90;;
16954;SDS011;8594;52.052;8.354;2023-05-10T04:10:35;4.03;;;2.33;;
16954;SDS011;8594;52.052;8.354;2023-05-10T04:13:03;2.23;;;1.90;;
16954;SDS011;8594;52.052;8.354;2023-05-10T04:15:30;2.43;;;2.20;;
16954;SDS011;8594;52.052;8.354;2023-05-10T04:17:57;3.97;;;3.23;;
16954;SDS011;8594;52.052;8.354;2023-05-10T04:20:24;3.60;;;2.53;;
16954;SDS011;8594;52.052;8.354;2023-05-10T04:22:50;3.60;;;2.90;;
16954;SDS011;8594;52.052;8.354;2023-05-10T04:25:17;4.33;;;3.20;;
16954;SDS011;8594;52.052;8.354;2023-05-10T04:27:44;4.50;;;3.10;;
16954;SDS011;8594;52.052;8.354;2023-05-10T04:30:12;5.33;;;3.40;;
16954;SDS011;8594;52.052;8.354;2023-05-10T04:32:39;5.73;;;4.03;;
16954;SDS011;8594;52.052;8.354;2023-05-10T04:35:06;5.20;;;4.10;;
16954;SDS011;8594;52.052;8.354;2023-05-10T04:37:35;6.27;;;3.73;;
16954;SDS011;8594;52.052;8.354;2023-05-10T04:40:02;5.87;;;3.97;;
16954;SDS011;8594;52.052;8.354;2023-05-10T04:42:30;6.27;;;4.23;;
16954;SDS011;8594;52.052;8.354;2023-05-10T04:44:57;7.33;;;4.27;;
16954;SDS011;8594;52.052;8.354;2023-05-10T04:47:25;5.87;;;4.73;;
16954;SDS011;8594;52.052;8.354;2023-05-10T04:49:52;6.83;;;4.80;;
16954;SDS011;8594;52.052;8.354;2023-05-10T04:52:19;6.23;;;4.33;;
16954;SDS011;8594;52.052;8.354;2023-05-10T04:54:45;9.00;;;5.07;;
16954;SDS011;8594;52.052;8.354;2023-05-10T04:57:12;7.03;;;5.00;;
16954;SDS011;8594;52.052;8.354;2023-05-10T04:59:39;6.37;;;5.00;;
16954;SDS011;8594;52.052;8.354;2023-05-10T05:02:06;8.77;;;5.23;;
16954;SDS011;8594;52.052;8.354;2023-05-10T05:04:34;6.27;;;4.80;;
16954;SDS011;8594;52.052;8.354;2023-05-10T05:07:01;5.70;;;4.53;;
16954;SDS011;8594;52.052;8.354;2023-05-10T05:09:28;5.43;;;4.27;;
16954;SDS011;8594;52.052;8.354;2023-05-10T05:11:56;6.27;;;4.50;;
16954;SDS011;8594;52.052;8.354;2023-05-10T05:14:23;6.90;;;4.80;;
16954;SDS011;8594;52.052;8.354;2023-05-10T05:16:50;9.40;;;4.33;;
16954;SDS011;8594;52.052;8.354;2023-05-10T05:19:17;15.20;;;4.60;;
16954;SDS011;8594;52.052;8.354;2023-05-10T05:21:45;7.87;;;4.57;;
16954;SDS011;8594;52.052;8.354;2023-05-10T05:24:12;5.07;;;4.23;;
16954;SDS011;8594;52.052;8.354;2023-05-10T05:26:39;5.93;;;4.17;;
16954;SDS011;8594;52.052;8.354;2023-05-10T05:29:06;7.67;;;4.23;;
16954;SDS011;8594;52.052;8.354;2023-05-10T05:31:33;6.93;;;4.10;;
16954;SDS011;8594;52.052;8.354;2023-05-10T05:34:00;4.70;;;3.60;;
16954;SDS011;8594;52.052;8.354;2023-05-10T05:36:27;4.87;;;3.93;;
16954;SDS011;8594;52.052;8.354;2023-05-10T05:38:55;5.87;;;3.73;;
16954;SDS011;8594;52.052;8.354;2023-05-10T05:41:22;7.73;;;4.47;;
16954;SDS011;8594;52.052;8.354;2023-05-10T05:43:49;4.67;;;3.63;;
16954;SDS011;8594;52.052;8.354;2023-05-10T05:46:17;4.77;;;3.67;;
16954;SDS011;8594;52.052;8.354;2023-05-10T05:48:44;5.83;;;4.07;;
16954;SDS011;8594;52.052;8.354;2023-05-10T05:51:10;6.33;;;4.17;;
16954;SDS011;8594;52.052;8.354;2023-05-10T05:53:37;6.83;;;3.83;;
16954;SDS011;8594;52.052;8.354;2023-05-10T05:56:05;6.93;;;4.07;;
16954;SDS011;8594;52.052;8.354;2023-05-10T05:58:33;4.37;;;3.53;;
16954;SDS011;8594;52.052;8.354;2023-05-10T06:00:59;5.53;;;3.90;;
16954;SDS011;8594;52.052;8.354;2023-05-10T06:03:26;6.20;;;3.70;;
16954;SDS011;8594;52.052;8.354;2023-05-10T06:05:53;5.00;;;4.03;;
16954;SDS011;8594;52.052;8.354;2023-05-10T06:08:20;5.53;;;3.90;;
16954;SDS011;8594;52.052;8.354;2023-05-10T06:10:47;5.97;;;4.13;;
16954;SDS011;8594;52.052;8.354;2023-05-10T06:13:15;5.27;;;3.90;;
16954;SDS011;8594;52.052;8.354;2023-05-10T06:15:42;5.40;;;4.10;;
16954;SDS011;8594;52.052;8.354;2023-05-10T06:18:09;6.63;;;3.90;;
16954;SDS011;8594;52.052;8.354;2023-05-10T06:20:35;4.70;;;3.50;;
16954;SDS011;8594;52.052;8.354;2023-05-10T06:23:02;6.10;;;3.73;;
16954;SDS011;8594;52.052;8.354;2023-05-10T06:25:29;4.83;;;3.83;;
16954;SDS011;8594;52.052;8.354;2023-05-10T06:27:56;7.00;;;3.40;;
16954;SDS011;8594;52.052;8.354;2023-05-10T06:30:24;6.67;;;4.13;;
16954;SDS011;8594;52.052;8.354;2023-05-10T06:32:53;6.70;;;4.13;;
16954;SDS011;8594;52.052;8.354;2023-05-10T06:35:21;6.73;;;3.80;;
16954;SDS011;8594;52.052;8.354;2023-05-10T06:37:48;5.10;;;3.60;;
16954;SDS011;8594;52.052;8.354;2023-05-10T06:40:15;8.13;;;3.90;;
16954;SDS011;8594;52.052;8.354;2023-05-10T06:42:42;7.30;;;4.37;;
16954;SDS011;8594;52.052;8.354;2023-05-10T06:45:11;4.60;;;3.57;;
16954;SDS011;8594;52.052;8.354;2023-05-10T06:47:40;6.73;;;4.00;;
16954;SDS011;8594;52.052;8.354;2023-05-10T06:50:08;5.97;;;4.00;;
16954;SDS011;8594;52.052;8.354;2023-05-10T06:52:36;6.07;;;3.93;;
16954;SDS011;8594;52.052;8.354;2023-05-10T06:55:03;6.43;;;4.47;;
16954;SDS011;8594;52.052;8.354;2023-05-10T06:57:31;8.87;;;4.73;;
16954;SDS011;8594;52.052;8.354;2023-05-10T06:59:58;9.10;;;4.37;;
16954;SDS011;8594;52.052;8.354;2023-05-10T07:02:25;11.03;;;5.17;;
16954;SDS011;8594;52.052;8.354;2023-05-10T07:04:54;7.77;;;5.03;;
16954;SDS011;8594;52.052;8.354;2023-05-10T07:07:20;9.17;;;4.67;;
16954;SDS011;8594;52.052;8.354;2023-05-10T07:09:47;6.07;;;4.43;;
16954;SDS011;8594;52.052;8.354;2023-05-10T07:12:14;6.43;;;4.97;;
16954;SDS011;8594;52.052;8.354;2023-05-10T07:14:41;8.07;;;5.47;;
16954;SDS011;8594;52.052;8.354;2023-05-10T07:17:08;8.37;;;5.27;;
16954;SDS011;8594;52.052;8.354;2023-05-10T07:19:35;8.27;;;5.90;;
16954;SDS011;8594;52.052;8.354;2023-05-10T07:22:03;11.20;;;6.23;;
16954;SDS011;8594;52.052;8.354;2023-05-10T07:24:31;10.50;;;6.17;;
16954;SDS011;8594;52.052;8.354;2023-05-10T07:26:59;11.43;;;7.13;;
16954;SDS011;8594;52.052;8.354;2023-05-10T07:29:26;11.23;;;6.60;;
16954;SDS011;8594;52.052;8.354;2023-05-10T07:31:53;13.83;;;8.57;;
16954;SDS011;8594;52.052;8.354;2023-05-10T07:34:20;11.77;;;7.60;;
16954;SDS011;8594;52.052;8.354;2023-05-10T07:36:47;14.97;;;9.33;;
16954;SDS011;8594;52.052;8.354;2023-05-10T07:39:15;14.87;;;8.47;;
16954;SDS011;8594;52.052;8.354;2023-05-10T07:41:42;13.60;;;8.30;;
16954;SDS011;8594;52.052;8.354;2023-05-10T07:44:09;17.03;;;10.10;;
16954;SDS011;8594;52.052;8.354;2023-05-10T07:46:36;20.67;;;11.37;;
16954;SDS011;8594;52.052;8.354;2023-05-10T07:49:03;16.73;;;10.97;;
16954;SDS011;8594;52.052;8.354;2023-05-10T07:51:30;21.37;;;11.87;;
16954;SDS011;8594;52.052;8.354;2023-05-10T07:53:57;21.73;;;12.37;;
16954;SDS011;8594;52.052;8.354;2023-05-10T07:56:26;19.77;;;11.93;;
16954;SDS011;8594;52.052;8.354;2023-05-10T07:58:55;21.97;;;12.33;;
16954;SDS011;8594;52.052;8.354;2023-05-10T08:01:22;22.90;;;12.93;;
16954;SDS011;8594;52.052;8.354;2023-05-10T08:03:50;21.80;;;12.43;;
16954;SDS011;8594;52.052;8.354;2023-05-10T08:06:18;23.90;;;12.77;;
16954;SDS011;8594;52.052;8.354;2023-05-10T08:08:46;21.10;;;12.23;;
16954;SDS011;8594;52.052;8.354;2023-05-10T08:11:15;25.00;;;13.27;;
16954;SDS011;8594;52.052;8.354;2023-05-10T08:13:43;22.03;;;13.40;;
16954;SDS011;8594;52.052;8.354;2023-05-10T08:16:10;25.23;;;13.40;;
16954;SDS011;8594;52.052;8.354;2023-05-10T08:18:37;27.47;;;13.37;;
16954;SDS011;8594;52.052;8.354;2023-05-10T08:21:05;26.10;;;13.73;;
16954;SDS011;8594;52.052;8.354;2023-05-10T08:23:32;25.43;;;13.50;;
16954;SDS011;8594;52.052;8.354;2023-05-10T08:25:59;24.57;;;13.47;;
16954;SDS011;8594;52.052;8.354;2023-05-10T08:28:26;25.33;;;13.50;;
16954;SDS011;8594;52.052;8.354;2023-05-10T08:30:55;25.17;;;12.67;;
16954;SDS011;8594;52.052;8.354;2023-05-10T08:33:21;25.30;;;13.17;;
16954;SDS011;8594;52.052;8.354;2023-05-10T08:35:48;25.23;;;13.73;;
16954;SDS011;8594;52.052;8.354;2023-05-10T08:38:15;26.27;;;12.73;;
16954;SDS011;8594;52.052;8.354;2023-05-10T08:40:42;27.80;;;14.13;;
16954;SDS011;8594;52.052;8.354;2023-05-10T08:43:11;27.03;;;12.93;;
16954;SDS011;8594;52.052;8.354;2023-05-10T08:45:40;24.30;;;12.93;;
16954;SDS011;8594;52.052;8.354;2023-05-10T08:48:11;29.43;;;13.73;;
16954;SDS011;8594;52.052;8.354;2023-05-10T08:50:38;22.63;;;11.57;;
16954;SDS011;8594;52.052;8.354;2023-05-10T08:53:09;23.30;;;12.37;;
16954;SDS011;8594;52.052;8.354;2023-05-10T08:55:37;22.93;;;12.07;;
16954;SDS011;8594;52.052;8.354;2023-05-10T08:58:07;24.03;;;12.70;;
16954;SDS011;8594;52.052;8.354;2023-05-10T09:00:35;25.10;;;12.17;;
16954;SDS011;8594;52.052;8.354;2023-05-10T09:03:03;22.87;;;12.00;;
16954;SDS011;8594;52.052;8.354;2023-05-10T09:05:32;23.40;;;12.63;;
16954;SDS011;8594;52.052;8.354;2023-05-10T09:07:59;27.80;;;12.90;;
16954;SDS011;8594;52.052;8.354;2023-05-10T09:10:26;28.37;;;13.50;;
16954;SDS011;8594;52.052;8.354;2023-05-10T09:12:56;26.97;;;13.63;;
16954;SDS011;8594;52.052;8.354;2023-05-10T09:15:23;28.33;;;14.60;;
16954;SDS011;8594;52.052;8.354;2023-05-10T09:17:50;29.07;;;14.97;;
16954;SDS011;8594;52.052;8.354;2023-05-10T09:20:17;27.57;;;14.97;;
16954;SDS011;8594;52.052;8.354;2023-05-10T09:22:45;32.63;;;16.37;;
16954;SDS011;8594;52.052;8.354;2023-05-10T09:25:13;32.20;;;14.97;;
16954;SDS011;8594;52.052;8.354;2023-05-10T09:27:44;30.57;;;16.57;;
16954;SDS011;8594;52.052;8.354;2023-05-10T09:30:15;29.57;;;15.30;;
16954;SDS011;8594;52.052;8.354;2023-05-10T09:32:44;28.40;;;15.23;;
16954;SDS011;8594;52.052;8.354;2023-05-10T09:35:13;30.73;;;15.10;;
16954;SDS011;8594;52.052;8.354;2023-05-10T09:37:43;29.33;;;15.17;;
16954;SDS011;8594;52.052;8.354;2023-05-10T09:40:14;32.53;;;15.57;;
16954;SDS011;8594;52.052;8.354;2023-05-10T09:42:43;25.83;;;13.60;;
16954;SDS011;8594;52.052;8.354;2023-05-10T09:45:19;29.73;;;15.20;;
16954;SDS011;8594;52.052;8.354;2023-05-10T09:47:47;28.27;;;15.57;;
16954;SDS011;8594;52.052;8.354;2023-05-10T09:50:14;25.17;;;14.57;;
16954;SDS011;8594;52.052;8.354;2023-05-10T09:52:49;24.93;;;15.03;;
16954;SDS011;8594;52.052;8.354;2023-05-10T09:55:19;25.90;;;14.47;;
16954;SDS011;8594;52.052;8.354;2023-05-10T09:57:47;24.90;;;13.57;;
16954;SDS011;8594;52.052;8.354;2023-05-10T10:00:18;23.77;;;13.67;;
16954;SDS011;8594;52.052;8.354;2023-05-10T10:02:47;25.43;;;14.27;;
16954;SDS011;8594;52.052;8.354;2023-05-10T10:05:20;22.40;;;12.63;;
16954;SDS011;8594;52.052;8.354;2023-05-10T10:07:55;21.00;;;12.07;;
16954;SDS011;8594;52.052;8.354;2023-05-10T10:10:24;22.17;;;12.13;;
16954;SDS011;8594;52.052;8.354;2023-05-10T10:12:51;21.40;;;11.87;;
16954;SDS011;8594;52.052;8.354;2023-05-10T10:15:18;22.33;;;11.90;;
16954;SDS011;8594;52.052;8.354;2023-05-10T10:17:46;17.70;;;11.20;;
16954;SDS011;8594;52.052;8.354;2023-05-10T10:20:15;20.30;;;10.33;;
16954;SDS011;8594;52.052;8.354;2023-05-10T10:22:43;14.47;;;9.27;;
16954;SDS011;8594;52.052;8.354;2023-05-10T10:25:12;17.27;;;10.13;;
16954;SDS011;8594;52.052;8.354;2023-05-10T10:27:43;18.10;;;8.97;;
16954;SDS011;8594;52.052;8.354;2023-05-10T10:30:24;16.53;;;9.10;;
16954;SDS011;8594;52.052;8.354;2023-05-10T10:33:13;15.53;;;9.50;;
16954;SDS011;8594;52.052;8.354;2023-05-10T10:36:02;18.00;;;9.67;;
16954;SDS011;8594;52.052;8.354;2023-05-10T10:38:37;17.80;;;9.50;;
16954;SDS011;8594;52.052;8.354;2023-05-10T10:41:31;16.20;;;9.27;;
16954;SDS011;8594;52.052;8.354;2023-05-10T10:47:06;18.53;;;9.33;;
16954;SDS011;8594;52.052;8.354;2023-05-10T10:50:02;19.77;;;9.10;;
16954;SDS011;8594;52.052;8.354;2023-05-10T10:52:31;19.03;;;10.00;;
16954;SDS011;8594;52.052;8.354;2023-05-10T10:55:00;19.00;;;9.97;;
16954;SDS011;8594;52.052;8.354;2023-05-10T10:57:43;14.07;;;8.77;;
16954;SDS011;8594;52.052;8.354;2023-05-10T11:00:20;17.70;;;8.87;;
16954;SDS011;8594;52.052;8.354;2023-05-10T11:02:53;16.47;;;8.07;;
16954;SDS011;8594;52.052;8.354;2023-05-10T11:05:23;15.93;;;8.37;;
16954;SDS011;8594;52.052;8.354;2023-05-10T11:08:10;14.27;;;7.30;;
16954;SDS011;8594;52.052;8.354;2023-05-10T11:10:53;14.53;;;8.00;;
16954;SDS011;8594;52.052;8.354;2023-05-10T11:13:34;12.23;;;5.47;;
16954;SDS011;8594;52.052;8.354;2023-05-10T11:16:13;12.13;;;5.70;;
16954;SDS011;8594;52.052;8.354;2023-05-10T11:18:52;13.03;;;7.03;;
16954;SDS011;8594;52.052;8.354;2023-05-10T11:21:23;15.33;;;8.50;;
16954;SDS011;8594;52.052;8.354;2023-05-10T11:23:50;16.47;;;8.77;;
16954;SDS011;8594;52.052;8.354;2023-05-10T11:26:21;17.10;;;8.90;;
16954;SDS011;8594;52.052;8.354;2023-05-10T11:28:52;16.77;;;8.30;;
16954;SDS011;8594;52.052;8.354;2023-05-10T11:31:21;19.53;;;9.50;;
16954;SDS011;8594;52.052;8.354;2023-05-10T11:33:51;17.37;;;9.13;;
16954;SDS011;8594;52.052;8.354;2023-05-10T11:36:21;13.80;;;8.60;;
16954;SDS011;8594;52.052;8.354;2023-05-10T11:38:51;16.83;;;8.80;;
16954;SDS011;8594;52.052;8.354;2023-05-10T11:41:19;17.07;;;9.10;;
16954;SDS011;8594;52.052;8.354;2023-05-10T11:43:49;16.40;;;8.33;;
16954;SDS011;8594;52.052;8.354;2023-05-10T11:46:19;19.40;;;9.80;;
16954;SDS011;8594;52.052;8.354;2023-05-10T11:48:49;18.87;;;9.27;;
16954;SDS011;8594;52.052;8.354;2023-05-10T11:51:19;18.17;;;10.17;;
16954;SDS011;8594;52.052;8.354;2023-05-10T11:53:48;16.50;;;9.53;;
16954;SDS011;8594;52.052;8.354;2023-05-10T11:56:16;17.13;;;8.57;;
16954;SDS011;8594;52.052;8.354;2023-05-10T11:58:43;14.83;;;8.33;;
16954;SDS011;8594;52.052;8.354;2023-05-10T12:01:13;21.57;;;9.00;;
16954;SDS011;8594;52.052;8.354;2023-05-10T12:03:40;21.00;;;11.97;;
16954;SDS011;8594;52.052;8.354;2023-05-10T12:06:09;18.17;;;7.67;;
16954;SDS011;8594;52.052;8.354;2023-05-10T12:08:36;10.80;;;6.37;;
16954;SDS011;8594;52.052;8.354;2023-05-10T12:11:11;11.47;;;4.47;;
16954;SDS011;8594;52.052;8.354;2023-05-10T12:13:41;9.30;;;4.23;;
16954;SDS011;8594;52.052;8.354;2023-05-10T12:16:15;8.90;;;4.40;;
16954;SDS011;8594;52.052;8.354;2023-05-10T12:18:44;12.30;;;5.93;;
16954;SDS011;8594;52.052;8.354;2023-05-10T12:21:14;13.07;;;5.93;;
16954;SDS011;8594;52.052;8.354;2023-05-10T12:23:41;12.10;;;6.33;;
16954;SDS011;8594;52.052;8.354;2023-05-10T12:26:11;8.40;;;5.37;;
16954;SDS011;8594;52.052;8.354;2023-05-10T12:28:37;16.10;;;6.33;;
16954;SDS011;8594;52.052;8.354;2023-05-10T12:31:05;13.67;;;6.63;;
16954;SDS011;8594;52.052;8.354;2023-05-10T12:33:37;10.83;;;6.30;;
16954;SDS011;8594;52.052;8.354;2023-05-10T12:36:07;14.43;;;6.77;;
16954;SDS011;8594;52.052;8.354;2023-05-10T12:38:36;12.47;;;6.20;;
16954;SDS011;8594;52.052;8.354;2023-05-10T12:41:07;13.43;;;7.47;;
16954;SDS011;8594;52.052;8.354;2023-05-10T12:43:36;12.93;;;7.63;;
16954;SDS011;8594;52.052;8.354;2023-05-10T12:46:05;15.60;;;8.00;;
16954;SDS011;8594;52.052;8.354;2023-05-10T12:48:33;18.33;;;8.37;;
16954;SDS011;8594;52.052;8.354;2023-05-10T12:51:02;12.17;;;7.10;;
16954;SDS011;8594;52.052;8.354;2023-05-10T12:53:30;16.77;;;8.10;;
16954;SDS011;8594;52.052;8.354;2023-05-10T12:55:57;16.97;;;7.90;;
16954;SDS011;8594;52.052;8.354;2023-05-10T12:58:24;21.10;;;9.80;;
16954;SDS011;8594;52.052;8.354;2023-05-10T13:00:51;16.73;;;8.87;;
16954;SDS011;8594;52.052;8.354;2023-05-10T13:03:18;14.60;;;8.57;;
16954;SDS011;8594;52.052;8.354;2023-05-10T13:05:45;17.07;;;8.73;;
16954;SDS011;8594;52.052;8.354;2023-05-10T13:08:13;14.67;;;8.43;;
16954;SDS011;8594;52.052;8.354;2023-05-10T13:10:40;22.07;;;9.77;;
16954;SDS011;8594;52.052;8.354;2023-05-10T13:13:07;34.57;;;13.93;;
16954;SDS011;8594;52.052;8.354;2023-05-10T13:15:34;30.93;;;11.57;;
16954;SDS011;8594;52.052;8.354;2023-05-10T13:18:01;27.17;;;12.60;;
16954;SDS011;8594;52.052;8.354;2023-05-10T13:20:28;27.37;;;13.83;;
16954;SDS011;8594;52.052;8.354;2023-05-10T13:22:55;24.53;;;12.53;;
16954;SDS011;8594;52.052;8.354;2023-05-10T13:25:23;22.60;;;12.57;;
16954;SDS011;8594;52.052;8.354;2023-05-10T13:27:50;28.60;;;13.87;;
16954;SDS011;8594;52.052;8.354;2023-05-10T13:30:17;24.43;;;13.97;;
16954;SDS011;8594;52.052;8.354;2023-05-10T13:32:44;24.33;;;13.53;;
16954;SDS011;8594;52.052;8.354;2023-05-10T13:35:10;24.27;;;13.43;;
16954;SDS011;8594;52.052;8.354;2023-05-10T13:37:37;26.07;;;13.73;;
16954;SDS011;8594;52.052;8.354;2023-05-10T13:40:04;26.63;;;14.87;;
16954;SDS011;8594;52.052;8.354;2023-05-10T13:42:34;22.73;;;14.07;;
16954;SDS011;8594;52.052;8.354;2023-05-10T13:45:01;30.50;;;14.40;;
16954;SDS011;8594;52.052;8.354;2023-05-10T13:47:28;27.47;;;14.83;;
16954;SDS011;8594;52.052;8.354;2023-05-10T13:49:55;28.20;;;14.87;;
16954;SDS011;8594;52.052;8.354;2023-05-10T13:52:22;29.40;;;15.70;;
16954;SDS011;8594;52.052;8.354;2023-05-10T13:54:49;28.63;;;15.63;;
16954;SDS011;8594;52.052;8.354;2023-05-10T13:57:17;29.87;;;15.30;;
16954;SDS011;8594;52.052;8.354;2023-05-10T13:59:45;32.60;;;16.43;;
16954;SDS011;8594;52.052;8.354;2023-05-10T14:02:12;27.17;;;16.33;;
16954;SDS011;8594;52.052;8.354;2023-05-10T14:04:39;31.80;;;17.03;;
16954;SDS011;8594;52.052;8.354;2023-05-10T14:07:06;29.50;;;15.83;;
16954;SDS011;8594;52.052;8.354;2023-05-10T14:09:33;31.93;;;15.47;;
16954;SDS011;8594;52.052;8.354;2023-05-10T14:12:00;29.50;;;15.83;;
16954;SDS011;8594;52.052;8.354;2023-05-10T14:14:27;25.87;;;15.13;;
16954;SDS011;8594;52.052;8.354;2023-05-10T14:16:55;31.57;;;15.53;;
16954;SDS011;8594;52.052;8.354;2023-05-10T14:19:22;26.00;;;13.00;;
16954;SDS011;8594;52.052;8.354;2023-05-10T14:21:49;23.60;;;11.87;;
16954;SDS011;8594;52.052;8.354;2023-05-10T14:24:16;18.07;;;11.07;;
16954;SDS011;8594;52.052;8.354;2023-05-10T14:26:44;20.93;;;12.27;;
16954;SDS011;8594;52.052;8.354;2023-05-10T14:29:10;24.03;;;13.20;;
16954;SDS011;8594;52.052;8.354;2023-05-10T14:31:37;23.03;;;12.97;;
16954;SDS011;8594;52.052;8.354;2023-05-10T14:34:07;22.43;;;13.43;;
16954;SDS011;8594;52.052;8.354;2023-05-10T14:36:34;21.17;;;13.00;;
16954;SDS011;8594;52.052;8.354;2023-05-10T14:39:00;23.63;;;11.87;;
16954;SDS011;8594;52.052;8.354;2023-05-10T14:41:28;26.27;;;13.27;;
16954;SDS011;8594;52.052;8.354;2023-05-10T14:43:55;23.57;;;12.83;;
16954;SDS011;8594;52.052;8.354;2023-05-10T14:46:22;23.67;;;13.73;;
16954;SDS011;8594;52.052;8.354;2023-05-10T14:48:49;28.20;;;14.27;;
16954;SDS011;8594;52.052;8.354;2023-05-10T14:51:19;30.23;;;14.33;;
16954;SDS011;8594;52.052;8.354;2023-05-10T14:53:47;24.70;;;12.37;;
16954;SDS011;8594;52.052;8.354;2023-05-10T14:56:14;19.07;;;10.37;;
16954;SDS011;8594;52.052;8.354;2023-05-10T14:58:41;20.47;;;11.83;;
16954;SDS011;8594;52.052;8.354;2023-05-10T15:01:08;17.87;;;9.70;;
16954;SDS011;8594;52.052;8.354;2023-05-10T15:03:34;22.80;;;11.60;;
16954;SDS011;8594;52.052;8.354;2023-05-10T15:06:01;21.83;;;11.90;;